sensor_id;sensor_type;location;lat;lon;timestamp;pressure;altitude;pressure_sealevel;temperature;humidity
14253;BME280;7210;51.502;10.722;2022-10-03T00:02:33;100168.03;;;10.87;100.00
14253;BME280;7210;51.502;10.722;2022-10-03T00:05:26;100172.50;;;10.86;100.00
14253;BME280;7210;51.502;10.722;2022-10-03T00:08:08;100166.63;;;10.84;100.00
14253;BME280;7210;51.502;10.722;2022-10-03T00:10:58;100165.41;;;10.80;100.00
14253;BME280;7210;51.502;10.722;2022-10-03T00:13:40;100171.53;;;10.81;100.00
14253;BME280;7210;51.502;10.722;2022-10-03T00:16:17;100179.69;;;10.79;100.00
14253;BME280;7210;51.502;10.722;2022-10-03T00:18:55;100177.66;;;10.81;100.00
14253;BME280;7210;51.502;10.722;2022-10-03T00:21:58;100180.88;;;10.83;100.00
14253;BME280;7210;51.502;10.722;2022-10-03T00:24:43;100181.91;;;10.82;100.00
14253;BME280;7210;51.502;10.722;2022-10-03T00:27:26;100186.81;;;10.79;100.00
14253;BME280;7210;51.502;10.722;2022-10-03T00:30:12;100189.06;;;10.75;100.00
14253;BME280;7210;51.502;10.722;2022-10-03T00:33:03;100189.66;;;10.77;100.00
14253;BME280;7210;51.502;10.722;2022-10-03T00:35:51;100201.66;;;10.80;100.00
14253;BME280;7210;51.502;10.722;2022-10-03T00:38:57;100204.09;;;10.81;100.00
14253;BME280;7210;51.502;10.722;2022-10-03T00:48:42;100208.13;;;10.84;100.00
14253;BME280;7210;51.502;10.722;2022-10-03T00:51:33;100218.72;;;10.84;100.00
14253;BME280;7210;51.502;10.722;2022-10-03T00:54:27;100212.63;;;10.83;100.00
14253;BME280;7210;51.502;10.722;2022-10-03T00:57:15;100215.28;;;10.83;100.00
14253;BME280;7210;51.502;10.722;2022-10-03T01:00:13;100212.63;;;10.83;100.00
14253;BME280;7210;51.502;10.722;2022-10-03T01:03:14;100214.25;;;10.84;100.00
14253;BME280;7210;51.502;10.722;2022-10-03T01:06:10;100217.47;;;10.86;100.00
14253;BME280;7210;51.502;10.722;2022-10-03T01:09:05;100213.81;;;10.87;100.00
14253;BME280;7210;51.502;10.722;2022-10-03T01:11:57;100222.78;;;10.86;100.00
14253;BME280;7210;51.502;10.722;2022-10-03T01:14:51;100212.19;;;10.86;100.00
14253;BME280;7210;51.502;10.722;2022-10-03T01:17:32;100224.81;;;10.84;100.00
14253;BME280;7210;51.502;10.722;2022-10-03T01:20:19;100227.47;;;10.84;100.00
14253;BME280;7210;51.502;10.722;2022-10-03T01:23:24;100217.53;;;10.80;100.00
14253;BME280;7210;51.502;10.722;2022-10-03T01:26:17;100213.06;;;10.74;100.00
14253;BME280;7210;51.502;10.722;2022-10-03T01:28:55;100211.47;;;10.73;100.00
14253;BME280;7210;51.502;10.722;2022-10-03T01:31:48;100217.97;;;10.70;100.00
14253;BME280;7210;51.502;10.722;2022-10-03T01:34:26;100216.81;;;10.66;100.00
14253;BME280;7210;51.502;10.722;2022-10-03T01:37:07;100218.41;;;10.67;100.00
14253;BME280;7210;51.502;10.722;2022-10-03T01:39:45;100221.06;;;10.67;100.00
14253;BME280;7210;51.502;10.722;2022-10-03T01:42:30;100215.16;;;10.65;100.00
14253;BME280;7210;51.502;10.722;2022-10-03T01:45:14;100223.50;;;10.62;100.00
14253;BME280;7210;51.502;10.722;2022-10-03T01:47:54;100223.50;;;10.62;100.00
14253;BME280;7210;51.502;10.722;2022-10-03T01:50:33;100220.28;;;10.60;100.00
14253;BME280;7210;51.502;10.722;2022-10-03T01:53:10;100227.19;;;10.61;100.00
14253;BME280;7210;51.502;10.722;2022-10-03T01:55:55;100230.41;;;10.63;100.00
14253;BME280;7210;51.502;10.722;2022-10-03T01:58:32;100235.13;;;10.61;100.00
14253;BME280;7210;51.502;10.722;2022-10-03T02:01:11;100234.28;;;10.61;100.00
14253;BME280;7210;51.502;10.722;2022-10-03T02:03:51;100231.88;;;10.59;100.00
14253;BME280;7210;51.502;10.722;2022-10-03T02:06:31;100230.25;;;10.58;100.00
14253;BME280;7210;51.502;10.722;2022-10-03T02:09:10;100229.63;;;10.56;100.00
14253;BME280;7210;51.502;10.722;2022-10-03T02:14:48;100242.88;;;10.56;100.00
14253;BME280;7210;51.502;10.722;2022-10-03T02:17:33;100242.06;;;10.56;100.00
14253;BME280;7210;51.502;10.722;2022-10-03T02:20:23;100253.88;;;10.53;100.00
14253;BME280;7210;51.502;10.722;2022-10-03T02:22:56;100253.88;;;10.53;100.00
14253;BME280;7210;51.502;10.722;2022-10-03T02:25:35;100262.41;;;10.55;100.00
14253;BME280;7210;51.502;10.722;2022-10-03T02:28:29;100260.34;;;10.57;100.00
14253;BME280;7210;51.502;10.722;2022-10-03T02:31:46;100269.31;;;10.56;100.00
14253;BME280;7210;51.502;10.722;2022-10-03T02:34:46;100270.13;;;10.57;100.00
14253;BME280;7210;51.502;10.722;2022-10-03T02:38:04;100274.19;;;10.59;100.00
14253;BME280;7210;51.502;10.722;2022-10-03T02:41:01;100277.44;;;10.61;100.00
14253;BME280;7210;51.502;10.722;2022-10-03T02:44:28;100271.13;;;10.62;100.00
14253;BME280;7210;51.502;10.722;2022-10-03T02:47:35;100275.38;;;10.63;100.00
14253;BME280;7210;51.502;10.722;2022-10-03T02:50:51;100272.13;;;10.61;100.00
14253;BME280;7210;51.502;10.722;2022-10-03T02:57:14;100281.91;;;10.61;100.00
14253;BME280;7210;51.502;10.722;2022-10-03T03:00:13;100279.28;;;10.54;100.00
14253;BME280;7210;51.502;10.722;2022-10-03T03:03:33;100288.63;;;10.57;100.00
14253;BME280;7210;51.502;10.722;2022-10-03T03:06:57;100296.13;;;10.60;100.00
14253;BME280;7210;51.502;10.722;2022-10-03T03:09:56;100289.22;;;10.59;100.00
14253;BME280;7210;51.502;10.722;2022-10-03T03:16:41;100288.44;;;10.58;100.00
14253;BME280;7210;51.502;10.722;2022-10-03T03:22:35;100274.66;;;10.43;100.00
14253;BME280;7210;51.502;10.722;2022-10-03T03:25:32;100292.88;;;10.64;100.00
14253;BME280;7210;51.502;10.722;2022-10-03T03:28:22;100290.03;;;10.66;100.00
14253;BME280;7210;51.502;10.722;2022-10-03T03:31:09;100293.28;;;10.61;100.00
14253;BME280;7210;51.502;10.722;2022-10-03T03:33:52;100294.91;;;10.62;100.00
14253;BME280;7210;51.502;10.722;2022-10-03T03:36:35;100309.56;;;10.65;100.00
14253;BME280;7210;51.502;10.722;2022-10-03T03:39:45;100314.22;;;10.69;100.00
14253;BME280;7210;51.502;10.722;2022-10-03T03:42:47;100310.53;;;10.70;100.00
14253;BME280;7210;51.502;10.722;2022-10-03T03:45:42;100315.19;;;10.75;100.00
14253;BME280;7210;51.502;10.722;2022-10-03T03:48:43;100309.13;;;10.74;100.00
14253;BME280;7210;51.502;10.722;2022-10-03T03:51:30;100324.16;;;10.74;100.00
14253;BME280;7210;51.502;10.722;2022-10-03T03:54:53;100316.03;;;10.75;100.00
14253;BME280;7210;51.502;10.722;2022-10-03T03:57:49;100316.44;;;10.72;100.00
14253;BME280;7210;51.502;10.722;2022-10-03T04:00:36;100320.94;;;10.65;100.00
14253;BME280;7210;51.502;10.722;2022-10-03T04:03:25;100308.56;;;10.59;100.00
14253;BME280;7210;51.502;10.722;2022-10-03T04:06:20;100318.72;;;10.62;100.00
14253;BME280;7210;51.502;10.722;2022-10-03T04:09:13;100314.84;;;10.65;100.00
14253;BME280;7210;51.502;10.722;2022-10-03T04:12:03;100320.94;;;10.72;100.00
14253;BME280;7210;51.502;10.722;2022-10-03T04:15:13;100314.22;;;10.69;100.00
14253;BME280;7210;51.502;10.722;2022-10-03T04:18:06;100313.63;;;10.67;100.00
14253;BME280;7210;51.502;10.722;2022-10-03T04:21:37;100320.09;;;10.71;100.00
14253;BME280;7210;51.502;10.722;2022-10-03T04:25:08;100325.78;;;10.75;100.00
14253;BME280;7210;51.502;10.722;2022-10-03T04:28:09;100318.06;;;10.73;100.00
14253;BME280;7210;51.502;10.722;2022-10-03T04:30:58;100325.38;;;10.71;100.00
14253;BME280;7210;51.502;10.722;2022-10-03T04:33:42;100327.63;;;10.74;100.00
14253;BME280;7210;51.502;10.722;2022-10-03T04:36:49;100334.13;;;10.78;100.00
14253;BME280;7210;51.502;10.722;2022-10-03T04:39:36;100333.09;;;10.79;100.00
14253;BME280;7210;51.502;10.722;2022-10-03T04:42:19;100323.34;;;10.80;100.00
14253;BME280;7210;51.502;10.722;2022-10-03T04:45:16;100328.81;;;10.78;100.00
14253;BME280;7210;51.502;10.722;2022-10-03T04:47:52;100338.38;;;10.79;100.00
14253;BME280;7210;51.502;10.722;2022-10-03T04:50:36;100331.66;;;10.77;100.00
14253;BME280;7210;51.502;10.722;2022-10-03T04:53:32;100335.56;;;10.74;100.00
14253;BME280;7210;51.502;10.722;2022-10-03T04:56:22;100334.31;;;10.77;100.00
14253;BME280;7210;51.502;10.722;2022-10-03T04:59:01;100331.91;;;10.75;100.00
14253;BME280;7210;51.502;10.722;2022-10-03T05:01:41;100323.75;;;10.70;100.00
14253;BME280;7210;51.502;10.722;2022-10-03T05:04:23;100338.06;;;10.63;100.00
14253;BME280;7210;51.502;10.722;2022-10-03T05:07:05;100334.56;;;10.62;100.00
14253;BME280;7210;51.502;10.722;2022-10-03T05:09:55;100339.28;;;10.60;100.00
14253;BME280;7210;51.502;10.722;2022-10-03T05:12:34;100339.28;;;10.60;100.00
14253;BME280;7210;51.502;10.722;2022-10-03T05:15:20;100336.44;;;10.62;100.00
14253;BME280;7210;51.502;10.722;2022-10-03T05:18:01;100338.84;;;10.63;100.00
14253;BME280;7210;51.502;10.722;2022-10-03T05:20:52;100340.84;;;10.68;100.00
14253;BME280;7210;51.502;10.722;2022-10-03T05:23:37;100338.59;;;10.71;100.00
14253;BME280;7210;51.502;10.722;2022-10-03T05:26:21;100344.53;;;10.73;100.00
14253;BME280;7210;51.502;10.722;2022-10-03T05:29:02;100346.16;;;10.74;100.00
14253;BME280;7210;51.502;10.722;2022-10-03T05:31:49;100353.06;;;10.75;100.00
14253;BME280;7210;51.502;10.722;2022-10-03T05:34:37;100349.81;;;10.73;100.00
14253;BME280;7210;51.502;10.722;2022-10-03T05:37:41;100357.13;;;10.78;100.00
14253;BME280;7210;51.502;10.722;2022-10-03T05:40:20;100368.91;;;10.82;100.00
14253;BME280;7210;51.502;10.722;2022-10-03T05:43:20;100360.16;;;10.81;100.00
14253;BME280;7210;51.502;10.722;2022-10-03T05:46:00;100370.31;;;10.84;100.00
14253;BME280;7210;51.502;10.722;2022-10-03T05:48:44;100382.72;;;10.90;100.00
14253;BME280;7210;51.502;10.722;2022-10-03T05:51:55;100379.03;;;10.91;100.00
14253;BME280;7210;51.502;10.722;2022-10-03T05:55:00;100388.59;;;10.92;100.00
14253;BME280;7210;51.502;10.722;2022-10-03T05:58:20;100389.19;;;10.94;100.00
14253;BME280;7210;51.502;10.722;2022-10-03T06:01:18;100391.25;;;10.92;100.00
14253;BME280;7210;51.502;10.722;2022-10-03T06:04:08;100381.50;;;10.93;100.00
14253;BME280;7210;51.502;10.722;2022-10-03T06:07:04;100384.72;;;10.95;100.00
14253;BME280;7210;51.502;10.722;2022-10-03T06:10:26;100384.50;;;10.96;100.00
14253;BME280;7210;51.502;10.722;2022-10-03T06:13:11;100402.19;;;11.02;100.00
14253;BME280;7210;51.502;10.722;2022-10-03T06:15:57;100400.16;;;11.04;100.00
14253;BME280;7210;51.502;10.722;2022-10-03T06:19:02;100409.09;;;11.10;100.00
14253;BME280;7210;51.502;10.722;2022-10-03T06:32:13;100409.28;;;11.08;100.00
14253;BME280;7210;51.502;10.722;2022-10-03T06:45:53;100424.31;;;11.20;100.00
14253;BME280;7210;51.502;10.722;2022-10-03T06:51:58;100431.41;;;11.26;100.00
14253;BME280;7210;51.502;10.722;2022-10-03T06:55:14;100433.47;;;11.24;100.00
14253;BME280;7210;51.502;10.722;2022-10-03T06:58:50;100435.09;;;11.25;100.00
14253;BME280;7210;51.502;10.722;2022-10-03T07:01:58;100438.72;;;11.31;100.00
14253;BME280;7210;51.502;10.722;2022-10-03T07:05:04;100439.94;;;11.35;100.00
14253;BME280;7210;51.502;10.722;2022-10-03T07:11:06;100422.44;;;11.27;100.00
14253;BME280;7210;51.502;10.722;2022-10-03T07:17:37;100441.91;;;11.46;100.00
14253;BME280;7210;51.502;10.722;2022-10-03T07:20:50;100442.09;;;11.57;100.00
14253;BME280;7210;51.502;10.722;2022-10-03T07:24:27;100448.97;;;11.65;100.00
14253;BME280;7210;51.502;10.722;2022-10-03T07:27:28;100452.00;;;11.75;100.00
14253;BME280;7210;51.502;10.722;2022-10-03T07:30:13;100453.94;;;11.86;100.00
14253;BME280;7210;51.502;10.722;2022-10-03T07:33:20;100455.09;;;11.96;100.00
14253;BME280;7210;51.502;10.722;2022-10-03T07:36:39;100466.09;;;12.00;100.00
14253;BME280;7210;51.502;10.722;2022-10-03T07:40:15;100465.50;;;11.98;100.00
14253;BME280;7210;51.502;10.722;2022-10-03T07:43:44;100421.09;;;11.62;100.00
14253;BME280;7210;51.502;10.722;2022-10-03T07:47:07;100464.97;;;11.83;100.00
14253;BME280;7210;51.502;10.722;2022-10-03T07:50:01;100467.00;;;11.81;100.00
14253;BME280;7210;51.502;10.722;2022-10-03T07:52:55;100477.28;;;12.02;100.00
14253;BME280;7210;51.502;10.722;2022-10-03T07:55:48;100479.38;;;12.24;100.00
14253;BME280;7210;51.502;10.722;2022-10-03T08:01:45;100474.66;;;12.51;100.00
14253;BME280;7210;51.502;10.722;2022-10-03T08:04:54;100481.16;;;12.55;100.00
14253;BME280;7210;51.502;10.722;2022-10-03T08:08:01;100470.91;;;12.58;100.00
14253;BME280;7210;51.502;10.722;2022-10-03T08:14:10;100487.97;;;12.69;100.00
14253;BME280;7210;51.502;10.722;2022-10-03T08:17:32;100469.97;;;12.53;100.00
14253;BME280;7210;51.502;10.722;2022-10-03T08:20:40;100474.53;;;12.64;100.00
14253;BME280;7210;51.502;10.722;2022-10-03T08:23:39;100473.97;;;12.80;100.00
14253;BME280;7210;51.502;10.722;2022-10-03T08:26:19;100464.56;;;12.84;100.00
14253;BME280;7210;51.502;10.722;2022-10-03T08:29:21;100465.72;;;12.88;100.00
14253;BME280;7210;51.502;10.722;2022-10-03T08:32:45;100477.22;;;12.82;100.00
14253;BME280;7210;51.502;10.722;2022-10-03T08:35:59;100469.88;;;12.84;100.00
14253;BME280;7210;51.502;10.722;2022-10-03T08:38:57;100482.97;;;12.79;100.00
14253;BME280;7210;51.502;10.722;2022-10-03T08:42:22;100487.69;;;12.77;100.00
14253;BME280;7210;51.502;10.722;2022-10-03T08:45:43;100482.44;;;12.95;100.00
14253;BME280;7210;51.502;10.722;2022-10-03T08:52:05;100481.88;;;13.29;100.00
14253;BME280;7210;51.502;10.722;2022-10-03T08:55:26;100484.06;;;13.32;100.00
14253;BME280;7210;51.502;10.722;2022-10-03T08:58:37;100475.81;;;13.40;100.00
14253;BME280;7210;51.502;10.722;2022-10-03T09:01:39;100485.22;;;13.36;100.00
14253;BME280;7210;51.502;10.722;2022-10-03T09:04:53;100480.88;;;13.23;100.00
14253;BME280;7210;51.502;10.722;2022-10-03T09:07:54;100475.53;;;13.30;100.00
14253;BME280;7210;51.502;10.722;2022-10-03T09:11:00;100487.44;;;13.57;100.00
14253;BME280;7210;51.502;10.722;2022-10-03T09:20:46;100482.75;;;14.00;100.00
14253;BME280;7210;51.502;10.722;2022-10-03T09:24:00;100479.88;;;14.13;100.00
14253;BME280;7210;51.502;10.722;2022-10-03T09:30:33;100476.84;;;13.98;100.00
14253;BME280;7210;51.502;10.722;2022-10-03T09:37:19;100486.25;;;14.12;99.90
14253;BME280;7210;51.502;10.722;2022-10-03T09:47:46;100484.97;;;14.67;97.70
14253;BME280;7210;51.502;10.722;2022-10-03T09:51:11;100487.53;;;14.62;96.36
14253;BME280;7210;51.502;10.722;2022-10-03T10:00:33;100480.63;;;14.20;94.79
14253;BME280;7210;51.502;10.722;2022-10-03T10:10:53;100488.66;;;14.43;95.63
14253;BME280;7210;51.502;10.722;2022-10-03T10:14:08;100484.50;;;14.47;95.30
14253;BME280;7210;51.502;10.722;2022-10-03T10:20:31;100489.72;;;14.65;94.14
14253;BME280;7210;51.502;10.722;2022-10-03T10:23:35;100498.97;;;14.51;93.31
14253;BME280;7210;51.502;10.722;2022-10-03T10:30:13;100497.94;;;14.11;94.77
14253;BME280;7210;51.502;10.722;2022-10-03T10:43:46;100502.59;;;13.86;100.00
14253;BME280;7210;51.502;10.722;2022-10-03T10:47:12;100494.69;;;14.09;100.00
14253;BME280;7210;51.502;10.722;2022-10-03T10:50:36;100490.41;;;14.08;97.51
14253;BME280;7210;51.502;10.722;2022-10-03T10:57:14;100490.97;;;14.51;95.35
14253;BME280;7210;51.502;10.722;2022-10-03T11:00:16;100483.13;;;14.79;94.21
14253;BME280;7210;51.502;10.722;2022-10-03T11:10:26;100485.31;;;14.93;91.29
14253;BME280;7210;51.502;10.722;2022-10-03T11:13:46;100486.59;;;14.91;90.13
14253;BME280;7210;51.502;10.722;2022-10-03T11:17:15;100487.28;;;14.98;90.14
14253;BME280;7210;51.502;10.722;2022-10-03T11:20:46;100490.53;;;15.11;91.04
14253;BME280;7210;51.502;10.722;2022-10-03T11:24:04;100481.75;;;14.88;89.76
14253;BME280;7210;51.502;10.722;2022-10-03T11:27:37;100488.47;;;14.79;90.05
14253;BME280;7210;51.502;10.722;2022-10-03T11:30:39;100486.38;;;14.81;89.46
14253;BME280;7210;51.502;10.722;2022-10-03T11:37:07;100477.72;;;15.47;88.71
14253;BME280;7210;51.502;10.722;2022-10-03T11:39:47;100485.94;;;15.85;87.41
14253;BME280;7210;51.502;10.722;2022-10-03T11:42:28;100482.56;;;15.90;83.44
14253;BME280;7210;51.502;10.722;2022-10-03T11:45:04;100484.31;;;15.84;83.28
14253;BME280;7210;51.502;10.722;2022-10-03T11:47:49;100478.38;;;15.66;83.51
14253;BME280;7210;51.502;10.722;2022-10-03T11:50:48;100479.16;;;15.38;83.92
14253;BME280;7210;51.502;10.722;2022-10-03T11:53:40;100473.72;;;15.22;84.79
14253;BME280;7210;51.502;10.722;2022-10-03T11:56:26;100488.19;;;15.14;85.23
14253;BME280;7210;51.502;10.722;2022-10-03T11:59:32;100488.69;;;15.00;85.91
14253;BME280;7210;51.502;10.722;2022-10-03T12:02:11;100482.19;;;15.08;86.98
14253;BME280;7210;51.502;10.722;2022-10-03T12:04:55;100473.16;;;15.09;86.74
14253;BME280;7210;51.502;10.722;2022-10-03T12:07:45;100476.25;;;15.17;86.53
14253;BME280;7210;51.502;10.722;2022-10-03T12:10:52;100439.22;;;15.04;86.04
14253;BME280;7210;51.502;10.722;2022-10-03T12:13:36;100466.16;;;15.30;85.81
14253;BME280;7210;51.502;10.722;2022-10-03T12:16:19;100452.69;;;15.48;85.41
14253;BME280;7210;51.502;10.722;2022-10-03T12:19:03;100458.88;;;15.65;84.16
14253;BME280;7210;51.502;10.722;2022-10-03T12:21:49;100441.59;;;15.68;83.83
14253;BME280;7210;51.502;10.722;2022-10-03T12:24:26;100450.50;;;15.73;84.21
14253;BME280;7210;51.502;10.722;2022-10-03T12:27:04;100429.06;;;15.68;83.44
14253;BME280;7210;51.502;10.722;2022-10-03T12:29:39;100441.00;;;15.77;83.40
14253;BME280;7210;51.502;10.722;2022-10-03T12:32:33;100438.75;;;16.02;82.94
14253;BME280;7210;51.502;10.722;2022-10-03T12:35:28;100442.94;;;15.98;80.69
14253;BME280;7210;51.502;10.722;2022-10-03T12:38:42;100431.94;;;15.78;80.23
14253;BME280;7210;51.502;10.722;2022-10-03T12:41:24;100436.13;;;15.74;80.21
14253;BME280;7210;51.502;10.722;2022-10-03T12:44:20;100443.00;;;15.70;80.53
14253;BME280;7210;51.502;10.722;2022-10-03T12:47:10;100443.59;;;15.89;81.20
14253;BME280;7210;51.502;10.722;2022-10-03T12:49:52;100434.72;;;16.00;80.32
14253;BME280;7210;51.502;10.722;2022-10-03T12:52:32;100435.28;;;16.02;79.62
14253;BME280;7210;51.502;10.722;2022-10-03T12:55:22;100426.78;;;15.88;79.41
14253;BME280;7210;51.502;10.722;2022-10-03T12:58:07;100429.28;;;15.78;80.23
14253;BME280;7210;51.502;10.722;2022-10-03T13:01:10;100434.78;;;15.88;79.82
14253;BME280;7210;51.502;10.722;2022-10-03T13:03:50;100426.34;;;15.80;79.33
14253;BME280;7210;51.502;10.722;2022-10-03T13:06:56;100419.56;;;15.72;79.37
14253;BME280;7210;51.502;10.722;2022-10-03T13:09:59;100429.06;;;15.68;78.94
14253;BME280;7210;51.502;10.722;2022-10-03T13:12:50;100424.78;;;15.67;79.48
14253;BME280;7210;51.502;10.722;2022-10-03T13:15:57;100424.44;;;15.64;79.45
14253;BME280;7210;51.502;10.722;2022-10-03T13:18:50;100438.03;;;15.62;79.25
14253;BME280;7210;51.502;10.722;2022-10-03T13:21:27;100429.44;;;15.60;78.58
14253;BME280;7210;51.502;10.722;2022-10-03T13:24:03;100429.16;;;15.73;78.61
14253;BME280;7210;51.502;10.722;2022-10-03T13:26:51;100426.78;;;15.88;78.33
14253;BME280;7210;51.502;10.722;2022-10-03T13:29:26;100432.59;;;15.85;77.46
14253;BME280;7210;51.502;10.722;2022-10-03T13:32:14;100429.53;;;15.93;76.52
14253;BME280;7210;51.502;10.722;2022-10-03T13:35:31;100432.94;;;15.89;74.87
14253;BME280;7210;51.502;10.722;2022-10-03T13:41:33;100422.56;;;15.76;76.93
14253;BME280;7210;51.502;10.722;2022-10-03T13:44:14;100427.75;;;15.54;78.02
14253;BME280;7210;51.502;10.722;2022-10-03T13:46:46;100433.47;;;15.46;78.29
14253;BME280;7210;51.502;10.722;2022-10-03T13:49:26;100420.97;;;15.35;79.25
14253;BME280;7210;51.502;10.722;2022-10-03T13:52:13;100421.31;;;15.39;80.28
14253;BME280;7210;51.502;10.722;2022-10-03T13:55:15;100407.59;;;15.47;79.38
14253;BME280;7210;51.502;10.722;2022-10-03T13:57:55;100413.75;;;15.47;79.06
14253;BME280;7210;51.502;10.722;2022-10-03T14:00:32;100416.03;;;15.55;78.98
14253;BME280;7210;51.502;10.722;2022-10-03T14:03:23;100414.44;;;15.54;77.69
14253;BME280;7210;51.502;10.722;2022-10-03T14:06:11;100406.34;;;15.49;78.05
14253;BME280;7210;51.502;10.722;2022-10-03T14:11:52;100403.75;;;15.54;77.94
14253;BME280;7210;51.502;10.722;2022-10-03T14:14:51;100408.13;;;15.60;77.56
14253;BME280;7210;51.502;10.722;2022-10-03T14:17:35;100410.00;;;15.60;76.85
14253;BME280;7210;51.502;10.722;2022-10-03T14:20:22;100405.38;;;15.55;76.59
14253;BME280;7210;51.502;10.722;2022-10-03T14:23:10;100408.63;;;15.57;76.99
14253;BME280;7210;51.502;10.722;2022-10-03T14:25:50;100401.66;;;15.56;77.38
14253;BME280;7210;51.502;10.722;2022-10-03T14:28:28;100395.84;;;15.59;77.21
14253;BME280;7210;51.502;10.722;2022-10-03T14:31:08;100405.47;;;15.60;77.19
14253;BME280;7210;51.502;10.722;2022-10-03T14:33:46;100395.84;;;15.59;76.91
14253;BME280;7210;51.502;10.722;2022-10-03T14:36:35;100391.34;;;15.60;76.23
14253;BME280;7210;51.502;10.722;2022-10-03T14:39:27;100396.91;;;15.58;75.56
14253;BME280;7210;51.502;10.722;2022-10-03T14:42:31;100396.34;;;15.56;75.97
14253;BME280;7210;51.502;10.722;2022-10-03T14:45:08;100389.38;;;15.55;75.54
14253;BME280;7210;51.502;10.722;2022-10-03T14:47:41;100393.66;;;15.56;76.02
14253;BME280;7210;51.502;10.722;2022-10-03T14:50:18;100389.72;;;15.59;76.41
14253;BME280;7210;51.502;10.722;2022-10-03T14:52:51;100390.44;;;15.54;77.21
14253;BME280;7210;51.502;10.722;2022-10-03T14:55:31;100389.88;;;15.69;77.09
14253;BME280;7210;51.502;10.722;2022-10-03T14:58:03;100404.13;;;15.74;77.00
14253;BME280;7210;51.502;10.722;2022-10-03T15:00:41;100391.03;;;15.73;76.19
14253;BME280;7210;51.502;10.722;2022-10-03T15:03:31;100390.72;;;15.69;74.98
14253;BME280;7210;51.502;10.722;2022-10-03T15:06:34;100385.19;;;15.59;74.67
14253;BME280;7210;51.502;10.722;2022-10-03T15:09:09;100391.38;;;15.48;75.53
14253;BME280;7210;51.502;10.722;2022-10-03T15:11:47;100385.72;;;15.45;75.20
14253;BME280;7210;51.502;10.722;2022-10-03T15:14:19;100395.50;;;15.39;75.60
14253;BME280;7210;51.502;10.722;2022-10-03T15:16:52;100387.63;;;15.33;75.51
14253;BME280;7210;51.502;10.722;2022-10-03T15:19:27;100383.78;;;15.29;75.96
14253;BME280;7210;51.502;10.722;2022-10-03T15:22:16;100392.50;;;15.24;76.85
14253;BME280;7210;51.502;10.722;2022-10-03T15:24:48;100394.50;;;15.18;76.58
14253;BME280;7210;51.502;10.722;2022-10-03T15:27:21;100392.41;;;15.08;77.10
14253;BME280;7210;51.502;10.722;2022-10-03T15:29:54;100381.91;;;15.02;77.08
14253;BME280;7210;51.502;10.722;2022-10-03T15:32:28;100381.22;;;14.95;77.46
14253;BME280;7210;51.502;10.722;2022-10-03T15:35:00;100387.50;;;14.89;77.63
14253;BME280;7210;51.502;10.722;2022-10-03T15:37:34;100381.97;;;14.79;78.58
14253;BME280;7210;51.502;10.722;2022-10-03T15:40:09;100384.50;;;14.74;78.79
14253;BME280;7210;51.502;10.722;2022-10-03T15:42:50;100386.25;;;14.68;79.76
14253;BME280;7210;51.502;10.722;2022-10-03T15:45:25;100378.97;;;14.64;79.74
14253;BME280;7210;51.502;10.722;2022-10-03T15:48:00;100379.91;;;14.58;80.43
14253;BME280;7210;51.502;10.722;2022-10-03T15:50:35;100377.59;;;14.50;81.29
14253;BME280;7210;51.502;10.722;2022-10-03T15:53:12;100382.56;;;14.46;81.42
14253;BME280;7210;51.502;10.722;2022-10-03T15:55:47;100376.19;;;14.36;81.99
14253;BME280;7210;51.502;10.722;2022-10-03T15:58:22;100377.94;;;14.30;82.15
14253;BME280;7210;51.502;10.722;2022-10-03T16:01:07;100373.53;;;14.24;82.61
14253;BME280;7210;51.502;10.722;2022-10-03T16:03:43;100376.09;;;14.19;82.60
14253;BME280;7210;51.502;10.722;2022-10-03T16:06:19;100383.09;;;14.14;82.64
14253;BME280;7210;51.502;10.722;2022-10-03T16:08:58;100379.97;;;14.05;83.08
14253;BME280;7210;51.502;10.722;2022-10-03T16:11:34;100386.09;;;14.06;83.39
14253;BME280;7210;51.502;10.722;2022-10-03T16:14:16;100387.03;;;14.00;83.77
14253;BME280;7210;51.502;10.722;2022-10-03T16:16:53;100392.22;;;13.95;84.25
14253;BME280;7210;51.502;10.722;2022-10-03T16:19:39;100390.47;;;13.89;84.65
14253;BME280;7210;51.502;10.722;2022-10-03T16:22:18;100390.38;;;13.84;85.11
14253;BME280;7210;51.502;10.722;2022-10-03T16:25:03;100397.63;;;13.77;85.41
14253;BME280;7210;51.502;10.722;2022-10-03T16:27:36;100397.34;;;13.67;86.07
14253;BME280;7210;51.502;10.722;2022-10-03T16:30:20;100397.09;;;13.57;86.51
14253;BME280;7210;51.502;10.722;2022-10-03T16:33:01;100388.97;;;13.52;87.11
14253;BME280;7210;51.502;10.722;2022-10-03T16:35:35;100393.13;;;13.48;87.43
14253;BME280;7210;51.502;10.722;2022-10-03T16:38:17;100396.09;;;13.40;87.89
14253;BME280;7210;51.502;10.722;2022-10-03T16:40:54;100395.22;;;13.28;88.27
14253;BME280;7210;51.502;10.722;2022-10-03T16:43:24;100394.38;;;13.16;88.91
14253;BME280;7210;51.502;10.722;2022-10-03T16:45:54;100388.78;;;13.06;89.59
14253;BME280;7210;51.502;10.722;2022-10-03T16:48:30;100394.63;;;12.96;90.23
14253;BME280;7210;51.502;10.722;2022-10-03T16:51:25;100390.81;;;12.86;91.03
14253;BME280;7210;51.502;10.722;2022-10-03T16:53:55;100389.50;;;12.77;91.57
14253;BME280;7210;51.502;10.722;2022-10-03T16:56:27;100396.28;;;12.73;92.11
14253;BME280;7210;51.502;10.722;2022-10-03T16:59:03;100392.88;;;12.66;92.54
14253;BME280;7210;51.502;10.722;2022-10-03T17:01:38;100384.34;;;12.64;93.02
14253;BME280;7210;51.502;10.722;2022-10-03T17:04:24;100381.88;;;12.62;93.56
14253;BME280;7210;51.502;10.722;2022-10-03T17:06:57;100390.31;;;12.59;94.06
14253;BME280;7210;51.502;10.722;2022-10-03T17:09:35;100381.97;;;12.56;94.43